WetterOnline ( http://www.wetteronline.at )

Wetter aktuell Stuttgart

Aktuelles Wetter: Schnarrenberg/Stuttgart (315m)

6-stündlich | Neueste Meldungen
Ortszeit Temperatur Wetter
So, 24.03. 19:00 11.3° C leicht bewölkt
So, 24.03. 13:00 13.3° C wolkenlos
So, 24.03. 7:00 4.0° C wolkenlos
So, 24.03. 1:00 7.9° C wolkenlos
Sa, 23.03. 19:00 14.2° C wolkenlos
Sa, 23.03. 13:00 16.3° C wolkenlos
Sa, 23.03. 7:00 4.1° C wolkenlos
Sa, 23.03. 1:00 7.1° C wolkenlos
Ortszeit Temperatur Wetter
So, 24.03. 20:00 11.0° C bewölkt
So, 24.03. 19:50 11.0° C bewölkt
So, 24.03. 19:40 11.1° C bewölkt
So, 24.03. 19:30 11.2° C wolkig
So, 24.03. 19:20 11.2° C wolkig
So, 24.03. 19:10 10.9° C leicht bewölkt
So, 24.03. 19:00 11.3° C leicht bewölkt
So, 24.03. 18:30 12.0° C wolkenlos
So, 24.03. 18:00 12.6° C wolkenlos
So, 24.03. 17:30 13.3° C fast wolkenlos
So, 24.03. 17:00 13.5° C wolkenlos
Ortszeit Relative Feuchte Sichtweite
So, 24.03. 19:00 65% 10 km
So, 24.03. 13:00 57% 9 km
So, 24.03. 7:00 86% 7 km
So, 24.03. 1:00 76% 6 km
Sa, 23.03. 19:00 41% 19 km
Sa, 23.03. 13:00 37% 25 km
Sa, 23.03. 7:00 78% 19 km
Sa, 23.03. 1:00 69% 20 km
Ortszeit Relative Feuchte Sichtweite
So, 24.03. 20:00 64% 11 km
So, 24.03. 19:50 64% -
So, 24.03. 19:40 64% -
So, 24.03. 19:30 64% 10 km
So, 24.03. 19:20 64% -
So, 24.03. 19:10 65% -
So, 24.03. 19:00 65% 10 km
So, 24.03. 18:30 63% 10 km
So, 24.03. 18:00 59% 11 km
So, 24.03. 17:30 57% 11 km
So, 24.03. 17:00 56% 10 km
Ortszeit Niederschlagsmenge Niederschlagsart
So, 24.03. 19:00 0.0 l/m2 in 12 Std. -
So, 24.03. 13:00 0.0 l/m2 in 6 Std. -
So, 24.03. 7:00 0.0 l/m2 in 12 Std. -
So, 24.03. 1:00 0.0 l/m2 in 6 Std. -
Sa, 23.03. 19:00 0.0 l/m2 in 12 Std. -
Sa, 23.03. 13:00 0.0 l/m2 in 6 Std. -
Sa, 23.03. 7:00 0.0 l/m2 in 12 Std. -
Sa, 23.03. 1:00 0.0 l/m2 in 6 Std. -
Ortszeit Niederschlagsmenge Niederschlagsart
So, 24.03. 20:00 0.0 l/m2 in 1 Std. -
So, 24.03. 19:50 keine Meldung -
So, 24.03. 19:40 keine Meldung -
So, 24.03. 19:30 0.0 l/m2 in 1 Std. -
So, 24.03. 19:20 keine Meldung -
So, 24.03. 19:10 keine Meldung -
So, 24.03. 19:00 0.0 l/m2 in 1 Std. -
So, 24.03. 18:30 0.0 l/m2 in 1 Std. -
So, 24.03. 18:00 0.0 l/m2 in 1 Std. -
So, 24.03. 17:30 0.0 l/m2 in 1 Std. -
So, 24.03. 17:00 0.0 l/m2 in 1 Std. -
Ortszeit Stärke Spitze Richtung
km/h Bft. km/h Grad Sektor
So, 24.03. 19:00 14 3 40 300° NW
So, 24.03. 13:00 17 3 26 330° NW
So, 24.03. 7:00 6 1 19 150° SO
So, 24.03. 1:00 14 3 18 280° W
Sa, 23.03. 19:00 7 2 22 320° NW
Sa, 23.03. 13:00 13 3 26 330° NW
Sa, 23.03. 7:00 14 3 22 160° S
Sa, 23.03. 1:00 7 2 11 150° SO
Ortszeit Stärke Spitze Richtung
km/h Bft. km/h Grad Sektor
So, 24.03. 20:00 17 3 24 310° NW
So, 24.03. 19:50 17 3 - 310° NW
So, 24.03. 19:40 15 3 - 300° NW
So, 24.03. 19:30 14 3 22 300° NW
So, 24.03. 19:20 14 3 - 300° NW
So, 24.03. 19:10 13 3 - 300° NW
So, 24.03. 19:00 14 3 29 300° NW
So, 24.03. 18:30 19 3 30 310° NW
So, 24.03. 18:00 20 4 37 310° NW
So, 24.03. 17:30 19 3 37 310° NW
So, 24.03. 17:00 24 4 37 310° NW
Ortszeit Untergrenze Bedeckung Gattung
total tief tief mittel hoch
So, 24.03. 19:00 1800 m 2/8 2/8 - - -
So, 24.03. 13:00 - 0/8 0/8 - - -
So, 24.03. 7:00 - 0/8 0/8 - - -
So, 24.03. 1:00 - 0/8 0/8 - - -
Sa, 23.03. 19:00 - 0/8 0/8 - - -
Sa, 23.03. 13:00 - 0/8 0/8 - - -
Sa, 23.03. 7:00 10500 m 0/8 0/8 - - -
Sa, 23.03. 1:00 - 0/8 0/8 - - -
Ortszeit Bedeckungsgrad in Achtel und Wolkenuntergrenze
So, 24.03. 20:00 7(1500m) 7(1800m)
So, 24.03. 19:50 7(1500m) 7(1800m)
So, 24.03. 19:40 7(1470m)
So, 24.03. 19:30 5(1500m) 6(1800m)
So, 24.03. 19:20 5(1500m) 6(1800m)
So, 24.03. 19:10 1(1500m) 4(1800m)
So, 24.03. 19:00 2(1800m)
So, 24.03. 18:30 keine Wolken
So, 24.03. 18:00 keine Wolken
So, 24.03. 17:30 1(1800m)
So, 24.03. 17:00 1(1800m)
Ortszeit Luftdruck NN (hPa) Tendenz (hPa in 3 Std.)
So, 24.03. 19:00 1023 + 0,5
So, 24.03. 13:00 1024 - 1,1
So, 24.03. 7:00 1026 - 0,2
So, 24.03. 1:00 1027 - 0,8
Sa, 23.03. 19:00 1026 + 0,2
Sa, 23.03. 13:00 1027 - 0,6
Sa, 23.03. 7:00 1029 + 0,1
Sa, 23.03. 1:00 1029 0,0
Ortszeit Luftdruck NN (hPa) Tendenz (hPa in 3 Std.)
So, 24.03. 20:00 1024 + 0,9
So, 24.03. 19:50 1024 keine Meldung
So, 24.03. 19:40 1024 keine Meldung
So, 24.03. 19:30 1023 + 0,7
So, 24.03. 19:20 1023 keine Meldung
So, 24.03. 19:10 1023 keine Meldung
So, 24.03. 19:00 1023 + 0,5
So, 24.03. 18:30 1023 + 0,5
So, 24.03. 18:00 1023 + 0,3
So, 24.03. 17:30 1022 + 0,1
So, 24.03. 17:00 1022 - 0,2
Ortszeit Schneehöhe (cm)
So, 24.03. 19:00 0
So, 24.03. 13:00 0
So, 24.03. 7:00 0
So, 24.03. 1:00 0
Sa, 23.03. 19:00 0
Sa, 23.03. 13:00 0
Sa, 23.03. 7:00 0
Sa, 23.03. 1:00 0
Ortszeit Schneehöhe (cm)
So, 24.03. 20:00 -
So, 24.03. 19:50 -
So, 24.03. 19:40 -
So, 24.03. 19:30 -
So, 24.03. 19:20 -
So, 24.03. 19:10 -
So, 24.03. 19:00 0
So, 24.03. 18:30 0
So, 24.03. 18:00 0
So, 24.03. 17:30 -
So, 24.03. 17:00 0
Link zu dieser Seite / Seite empfehlen

Das Wetter in ...